Time;durP1;ratioP1;P1;durP2;ratioP2;P2;SDS_P1;SDS_P2;PMS_P1;PMS_P2;Temp;Humidity;BMP_temperature;BMP_pressure;BME280_temperature;BME280_humidity;BME280_pressure;Samples;Min_cycle;Max_cycle;Signal;HPM_P1;HPM_P2
2023/01/24 00:01:28;;;;;;;16.40;9.47;;;1.70;99.90;;;;;;5014231;28;21037;-66
2023/01/24 00:03:54;;;;;;;19.63;11.43;;;1.60;99.90;;;;;;5014687;28;20505;-66
2023/01/24 00:06:21;;;;;;;20.97;11.47;;;1.60;99.90;;;;;;5019592;28;20480;-64
2023/01/24 00:08:48;;;;;;;20.60;10.97;;;1.60;99.90;;;;;;5018646;28;20465;-65
2023/01/24 00:11:14;;;;;;;21.20;10.93;;;1.60;99.90;;;;;;5016717;28;21001;-66
2023/01/24 00:13:41;;;;;;;19.10;9.67;;;1.60;99.90;;;;;;5020888;28;20828;-66
2023/01/24 00:16:13;;;;;;;17.23;10.10;;;1.50;99.90;;;;;;5014308;28;20540;-66
2023/01/24 00:18:40;;;;;;;20.70;10.30;;;1.50;99.90;;;;;;5020919;28;20489;-66
2023/01/24 00:21:09;;;;;;;19.00;9.97;;;1.50;99.90;;;;;;5014328;28;20994;-65
2023/01/24 00:23:36;;;;;;;17.87;10.07;;;1.40;99.90;;;;;;5014027;28;20465;-66
2023/01/24 00:26:03;;;;;;;19.50;10.63;;;1.40;99.90;;;;;;5014276;28;20450;-65
2023/01/24 00:28:30;;;;;;;20.40;10.53;;;1.40;99.90;;;;;;5017542;28;21018;-66
2023/01/24 00:30:57;;;;;;;20.27;10.63;;;1.40;99.90;;;;;;5016630;28;20891;-66
2023/01/24 00:33:25;;;;;;;16.70;9.73;;;1.30;99.90;;;;;;5020844;28;20955;-66
2023/01/24 00:35:52;;;;;;;18.07;11.77;;;1.30;99.90;;;;;;5021367;28;20486;-66
2023/01/24 00:38:19;;;;;;;19.00;10.77;;;1.30;99.90;;;;;;5017460;28;20459;-66
2023/01/24 00:40:46;;;;;;;19.60;11.20;;;1.20;99.90;;;;;;5013761;28;20466;-66
2023/01/24 00:43:12;;;;;;;20.23;10.77;;;1.20;99.90;;;;;;5013924;28;20450;-66
2023/01/24 00:45:40;;;;;;;23.33;9.97;;;1.20;99.90;;;;;;5015312;28;20501;-66
2023/01/24 00:48:07;;;;;;;21.20;11.27;;;1.20;99.90;;;;;;5025655;28;20461;-66
2023/01/24 00:50:35;;;;;;;22.43;11.93;;;1.20;99.90;;;;;;5015601;28;20454;-66
2023/01/24 00:53:02;;;;;;;21.07;11.30;;;1.20;99.90;;;;;;5013716;28;20513;-66
2023/01/24 00:55:29;;;;;;;23.60;12.43;;;1.20;99.90;;;;;;5013343;28;20459;-66
2023/01/24 00:57:56;;;;;;;18.80;9.83;;;1.20;99.90;;;;;;5017710;28;20455;-66
2023/01/24 01:00:23;;;;;;;19.47;10.80;;;1.30;99.90;;;;;;5013498;28;20504;-66
2023/01/24 01:02:51;;;;;;;21.30;11.20;;;1.30;99.90;;;;;;5012787;28;20446;-66
2023/01/24 01:05:18;;;;;;;20.33;11.47;;;1.30;99.90;;;;;;5021969;28;20498;-66
2023/01/24 01:07:46;;;;;;;20.67;11.60;;;1.30;99.90;;;;;;5019779;28;21013;-66
2023/01/24 01:10:14;;;;;;;20.90;11.60;;;1.30;99.90;;;;;;5018287;28;20450;-66
2023/01/24 01:12:40;;;;;;;25.60;11.90;;;1.30;99.90;;;;;;5015554;28;20550;-66
2023/01/24 01:15:08;;;;;;;24.90;11.90;;;1.30;99.90;;;;;;5025288;28;20451;-66
2023/01/24 01:17:34;;;;;;;22.00;11.80;;;1.30;99.90;;;;;;5022332;28;20483;-66
2023/01/24 01:20:02;;;;;;;20.53;11.00;;;1.30;99.90;;;;;;5030679;28;20461;-66
2023/01/24 01:22:28;;;;;;;24.40;12.70;;;1.30;99.90;;;;;;5015803;28;20830;-66
2023/01/24 01:24:56;;;;;;;20.73;11.60;;;1.30;99.90;;;;;;5020164;28;20454;-66
2023/01/24 01:27:23;;;;;;;20.77;10.77;;;1.40;99.90;;;;;;5016959;28;20500;-66
2023/01/24 01:29:50;;;;;;;20.80;11.33;;;1.40;99.90;;;;;;5016509;28;20926;-66
2023/01/24 01:32:16;;;;;;;22.63;11.50;;;1.40;99.90;;;;;;5026005;28;20473;-66
2023/01/24 01:34:43;;;;;;;21.63;11.40;;;1.40;99.90;;;;;;5023816;28;20508;-66
2023/01/24 01:37:09;;;;;;;23.13;12.20;;;1.40;99.90;;;;;;5020001;28;20490;-66
2023/01/24 01:39:36;;;;;;;21.40;11.40;;;1.40;99.90;;;;;;5014177;28;20459;-66
2023/01/24 01:42:04;;;;;;;21.43;11.17;;;1.40;99.90;;;;;;5012690;28;20986;-66
2023/01/24 01:44:47;;;;;;;19.30;11.33;;;1.40;99.90;;;;;;5012541;28;20451;-66
2023/01/24 01:47:23;;;;;;;20.30;12.27;;;1.40;99.90;;;;;;5015131;28;20475;-66
2023/01/24 01:49:56;;;;;;;23.30;12.43;;;1.40;99.90;;;;;;5015981;28;20501;-66
2023/01/24 01:52:25;;;;;;;18.03;10.80;;;1.40;99.90;;;;;;5012803;28;20527;-66
2023/01/24 01:54:54;;;;;;;18.73;10.60;;;1.40;99.90;;;;;;5012309;28;20950;-66
2023/01/24 01:57:27;;;;;;;19.50;11.47;;;1.50;99.90;;;;;;5015709;28;20917;-66
2023/01/24 01:59:58;;;;;;;23.30;12.23;;;1.50;99.90;;;;;;5012437;28;20439;-65
2023/01/24 02:02:24;;;;;;;23.43;11.83;;;1.50;99.90;;;;;;5012570;28;20875;-66
2023/01/24 02:04:56;;;;;;;22.80;12.33;;;1.50;99.90;;;;;;5018133;28;20454;-66
2023/01/24 02:07:25;;;;;;;23.63;12.33;;;1.50;99.90;;;;;;5015799;28;20454;-66
2023/01/24 02:09:54;;;;;;;26.43;13.03;;;1.50;99.90;;;;;;5020029;28;20450;-66
2023/01/24 02:12:24;;;;;;;25.00;13.33;;;1.50;99.90;;;;;;5016979;28;20519;-66
2023/01/24 02:17:39;;;;;;;23.70;11.33;;;1.50;99.90;;;;;;5011949;28;20816;-66
2023/01/24 02:20:30;;;;;;;22.90;12.87;;;1.50;99.90;;;;;;5012883;28;20466;-66
2023/01/24 02:23:12;;;;;;;23.43;11.87;;;1.50;99.90;;;;;;5017729;28;20457;-66
2023/01/24 02:25:43;;;;;;;22.67;12.93;;;1.40;99.90;;;;;;5013865;28;20505;-66
2023/01/24 02:28:11;;;;;;;23.90;12.83;;;1.50;99.90;;;;;;5018949;28;20454;-66
2023/01/24 02:30:38;;;;;;;26.97;13.47;;;1.50;99.90;;;;;;5011726;28;20481;-65
2023/01/24 02:33:13;;;;;;;23.83;12.77;;;1.50;99.90;;;;;;5020363;28;20938;-66
2023/01/24 02:35:40;;;;;;;24.37;12.30;;;1.50;99.90;;;;;;5018962;28;20533;-66
2023/01/24 02:38:16;;;;;;;24.23;12.50;;;1.50;99.90;;;;;;5018441;28;20494;-66
2023/01/24 02:40:43;;;;;;;25.67;12.13;;;1.50;99.90;;;;;;5011562;28;20970;-66
2023/01/24 02:43:14;;;;;;;27.93;13.40;;;1.40;99.90;;;;;;5016070;28;20875;-66
2023/01/24 02:45:41;;;;;;;26.77;14.17;;;1.50;99.90;;;;;;5013178;28;20513;-66
2023/01/24 02:48:07;;;;;;;26.07;14.33;;;1.50;99.90;;;;;;5015688;28;20507;-66
2023/01/24 02:53:29;;;;;;;28.57;14.50;;;1.50;99.90;;;;;;5022019;28;20462;-66
2023/01/24 02:53:30;;;;;;;27.70;13.80;;;1.50;99.90;;;;;;5024205;28;20472;-65
2023/01/24 02:58:44;;;;;;;29.37;13.80;;;1.50;99.90;;;;;;5013283;28;20426;-66
2023/01/24 03:01:12;;;;;;;29.43;13.10;;;1.50;99.90;;;;;;5017681;28;20478;-66
2023/01/24 03:03:38;;;;;;;28.03;12.60;;;1.50;99.90;;;;;;5018475;28;20462;-66
2023/01/24 03:06:05;;;;;;;28.43;13.60;;;1.50;99.90;;;;;;5011486;28;20443;-66
2023/01/24 03:08:35;;;;;;;26.00;13.60;;;1.40;99.90;;;;;;5013154;28;20450;-66
2023/01/24 03:11:02;;;;;;;29.20;13.30;;;1.40;99.90;;;;;;5018380;28;20466;-66
2023/01/24 03:35:29;;;;;;;28.00;14.10;;;1.50;99.90;;;;;;5022935;28;20521;-66
2023/01/24 03:40:40;;;;;;;27.10;13.90;;;1.40;99.90;;;;;;5018430;28;20465;-66
2023/01/24 03:43:07;;;;;;;28.37;14.60;;;1.40;99.90;;;;;;5016759;28;20509;-66
2023/01/24 03:45:35;;;;;;;29.23;12.67;;;1.40;99.90;;;;;;5016663;28;20508;-66
2023/01/24 03:48:09;;;;;;;31.30;14.30;;;1.40;99.90;;;;;;5014783;28;20478;-66
2023/01/24 03:53:24;;;;;;;31.77;15.20;;;1.40;99.90;;;;;;5016347;28;20545;-66
2023/01/24 03:55:53;;;;;;;32.33;14.67;;;1.40;99.90;;;;;;5014607;28;20478;-65
2023/01/24 03:58:20;;;;;;;29.60;14.80;;;1.40;99.90;;;;;;5016209;28;20494;-66
2023/01/24 04:00:46;;;;;;;30.40;15.17;;;1.40;99.90;;;;;;5027254;28;20473;-66
2023/01/24 04:03:14;;;;;;;30.27;14.60;;;1.40;99.90;;;;;;5020530;28;20450;-66
2023/01/24 04:05:41;;;;;;;32.37;15.40;;;1.40;99.90;;;;;;5015654;28;20505;-66
2023/01/24 04:08:08;;;;;;;30.00;14.37;;;1.40;99.90;;;;;;5016737;28;21033;-66
2023/01/24 04:10:35;;;;;;;28.03;15.77;;;1.40;99.90;;;;;;5025756;28;20476;-66
2023/01/24 04:13:02;;;;;;;32.67;15.10;;;1.40;99.90;;;;;;5020853;28;20447;-66
2023/01/24 04:15:31;;;;;;;32.83;15.90;;;1.40;99.90;;;;;;5019892;28;20519;-66
2023/01/24 04:17:59;;;;;;;35.70;15.90;;;1.40;99.90;;;;;;5013930;28;21046;-66
2023/01/24 04:20:29;;;;;;;28.60;15.00;;;1.40;99.90;;;;;;5022156;28;20462;-67
2023/01/24 04:22:56;;;;;;;32.00;14.90;;;1.40;99.90;;;;;;5014069;28;20451;-66
2023/01/24 04:25:23;;;;;;;30.80;15.27;;;1.50;99.90;;;;;;5020056;28;20943;-66
2023/01/24 04:27:49;;;;;;;34.13;15.50;;;1.50;99.90;;;;;;5015505;28;20451;-66
2023/01/24 04:30:17;;;;;;;31.20;15.40;;;1.40;99.90;;;;;;5024210;28;20462;-66
2023/01/24 04:32:44;;;;;;;29.93;15.30;;;1.50;99.90;;;;;;5029494;28;20547;-66
2023/01/24 04:35:16;;;;;;;30.77;15.73;;;1.50;99.90;;;;;;5018084;28;20496;-66
2023/01/24 04:37:44;;;;;;;33.73;17.10;;;1.50;99.90;;;;;;5019747;28;20486;-66
2023/01/24 04:40:13;;;;;;;32.60;16.37;;;1.60;99.90;;;;;;5021594;28;21008;-66
2023/01/24 04:42:39;;;;;;;33.20;16.93;;;1.50;99.90;;;;;;5013816;28;20470;-65
2023/01/24 04:45:07;;;;;;;35.13;16.50;;;1.50;99.90;;;;;;5016949;28;20548;-66
2023/01/24 04:47:34;;;;;;;37.90;17.50;;;1.60;99.90;;;;;;5024991;28;20508;-66
2023/01/24 04:50:01;;;;;;;32.87;17.33;;;1.60;99.90;;;;;;5017359;28;20454;-66
2023/01/24 04:52:27;;;;;;;31.70;17.20;;;1.60;99.90;;;;;;5028993;28;20524;-66
2023/01/24 04:54:55;;;;;;;36.03;16.77;;;1.60;99.90;;;;;;5022343;28;20989;-66
2023/01/24 04:57:22;;;;;;;35.13;16.73;;;1.60;99.90;;;;;;5018879;28;20486;-65
2023/01/24 04:59:48;;;;;;;33.00;16.90;;;1.60;99.90;;;;;;5021336;28;20816;-66
2023/01/24 05:02:15;;;;;;;30.70;15.60;;;1.60;99.90;;;;;;5016386;28;20916;-66
2023/01/24 05:04:43;;;;;;;29.63;16.23;;;1.60;99.90;;;;;;5015645;28;20462;-66
2023/01/24 05:07:10;;;;;;;32.43;15.60;;;1.60;99.90;;;;;;5013628;28;20466;-66
2023/01/24 05:09:37;;;;;;;33.23;15.70;;;1.60;99.90;;;;;;5019602;28;20453;-66
2023/01/24 05:12:05;;;;;;;36.10;17.10;;;1.60;99.90;;;;;;5011993;28;20813;-67
2023/01/24 05:14:32;;;;;;;35.50;17.33;;;1.60;99.90;;;;;;5015029;28;20459;-66
2023/01/24 05:16:59;;;;;;;32.93;16.10;;;1.60;99.90;;;;;;5013766;28;20544;-66
2023/01/24 05:19:25;;;;;;;34.97;17.03;;;1.60;99.90;;;;;;5019351;28;20967;-65
2023/01/24 05:21:52;;;;;;;36.57;17.70;;;1.60;99.90;;;;;;5013024;28;20467;-65
2023/01/24 05:24:19;;;;;;;32.87;16.70;;;1.60;99.90;;;;;;5013661;28;20458;-65
2023/01/24 05:26:45;;;;;;;35.77;17.60;;;1.70;99.90;;;;;;5012990;28;20451;-65
2023/01/24 05:29:13;;;;;;;32.73;18.07;;;1.70;99.90;;;;;;5015272;28;20455;-65
2023/01/24 05:31:40;;;;;;;37.60;18.60;;;1.70;99.90;;;;;;5020674;28;20469;-65
2023/01/24 05:34:06;;;;;;;36.73;17.70;;;1.70;99.90;;;;;;5022532;28;20947;-66
2023/01/24 05:36:33;;;;;;;35.73;18.40;;;1.70;99.90;;;;;;5016436;28;20470;-65
2023/01/24 05:39:00;;;;;;;35.17;16.77;;;1.70;99.90;;;;;;5016406;28;20486;-65
2023/01/24 05:41:26;;;;;;;34.57;16.60;;;1.70;99.90;;;;;;5014159;28;20479;-66
2023/01/24 05:43:53;;;;;;;35.50;17.70;;;1.70;99.90;;;;;;5016504;28;20454;-65
2023/01/24 05:46:22;;;;;;;30.43;15.70;;;1.70;99.90;;;;;;5012875;28;20508;-66
2023/01/24 05:48:49;;;;;;;31.80;15.20;;;1.70;99.90;;;;;;5011706;28;20443;-65
2023/01/24 05:51:19;;;;;;;28.53;14.50;;;1.60;99.90;;;;;;5014879;28;20486;-66
2023/01/24 05:53:46;;;;;;;29.50;15.37;;;1.60;99.90;;;;;;5012183;28;20451;-66
2023/01/24 05:56:14;;;;;;;33.50;16.37;;;1.60;99.90;;;;;;5012248;28;20450;-66
2023/01/24 05:58:42;;;;;;;30.80;15.13;;;1.60;99.90;;;;;;5025690;28;20543;-65
2023/01/24 06:01:09;;;;;;;28.43;14.60;;;1.60;99.90;;;;;;5019932;28;20955;-66
2023/01/24 06:03:40;;;;;;;33.70;16.03;;;1.70;99.90;;;;;;5015312;28;20590;-67
2023/01/24 06:06:08;;;;;;;32.80;16.33;;;1.60;99.90;;;;;;5012260;28;20534;-67
2023/01/24 06:08:35;;;;;;;33.43;17.43;;;1.60;99.90;;;;;;5013392;28;20481;-67
2023/01/24 06:11:06;;;;;;;33.53;15.20;;;1.60;99.90;;;;;;5012370;28;20471;-67
2023/01/24 06:13:33;;;;;;;31.17;15.60;;;1.60;99.90;;;;;;5019268;28;20520;-65
2023/01/24 06:16:05;;;;;;;30.90;15.10;;;1.60;99.90;;;;;;5012363;28;21013;-65
2023/01/24 06:18:31;;;;;;;30.73;15.03;;;1.60;99.90;;;;;;5011802;28;20490;-66
2023/01/24 06:21:05;;;;;;;30.17;14.90;;;1.60;99.90;;;;;;5011593;28;20470;-66
2023/01/24 06:23:32;;;;;;;29.27;16.17;;;1.60;99.90;;;;;;5014435;28;20947;-66
2023/01/24 06:25:59;;;;;;;26.67;15.27;;;1.60;99.90;;;;;;5011641;28;20451;-66
2023/01/24 06:28:26;;;;;;;30.13;15.10;;;1.60;99.90;;;;;;5017893;28;20484;-66
2023/01/24 06:31:02;;;;;;;31.37;16.30;;;1.60;99.90;;;;;;5013059;28;20821;-66
2023/01/24 06:33:38;;;;;;;29.30;15.73;;;1.60;99.90;;;;;;5020764;28;20513;-66
2023/01/24 06:36:32;;;;;;;35.57;17.10;;;1.60;99.90;;;;;;5011627;28;20923;-66
2023/01/24 06:39:00;;;;;;;35.00;17.70;;;1.60;99.90;;;;;;5015525;28;20490;-65
2023/01/24 06:41:27;;;;;;;39.57;18.50;;;1.60;99.90;;;;;;5011593;28;20529;-66
2023/01/24 06:43:54;;;;;;;39.43;18.97;;;1.60;99.90;;;;;;5018431;28;20454;-65
2023/01/24 06:46:20;;;;;;;42.47;20.60;;;1.60;99.90;;;;;;5011817;28;20520;-66
2023/01/24 06:48:47;;;;;;;42.30;19.90;;;1.60;99.90;;;;;;5011618;28;20509;-66
2023/01/24 06:51:15;;;;;;;38.93;20.00;;;1.50;99.90;;;;;;5015234;28;20512;-65
2023/01/24 06:53:43;;;;;;;47.90;21.87;;;1.50;99.90;;;;;;5014785;28;20455;-66
2023/01/24 06:56:10;;;;;;;43.43;21.07;;;1.50;99.90;;;;;;5011194;28;20463;-66
2023/01/24 06:58:37;;;;;;;44.87;19.37;;;1.50;99.90;;;;;;5011261;28;20494;-66
2023/01/24 07:01:03;;;;;;;43.87;19.30;;;1.50;99.90;;;;;;5013722;28;20525;-67
2023/01/24 07:03:30;;;;;;;43.10;18.07;;;1.50;99.90;;;;;;5016499;28;20508;-67
2023/01/24 07:05:57;;;;;;;43.50;19.53;;;1.40;99.90;;;;;;5011191;28;20585;-67
2023/01/24 07:08:23;;;;;;;34.70;17.37;;;1.50;99.90;;;;;;5011371;28;20529;-67
2023/01/24 07:10:51;;;;;;;38.93;18.10;;;1.50;99.90;;;;;;5011995;28;20497;-67
2023/01/24 07:13:18;;;;;;;39.50;17.00;;;1.50;99.90;;;;;;5017906;28;21000;-67
2023/01/24 07:15:45;;;;;;;38.40;18.63;;;1.50;99.90;;;;;;5017914;28;20504;-67
2023/01/24 07:18:13;;;;;;;39.80;19.10;;;1.50;99.90;;;;;;5026711;28;20489;-66
2023/01/24 07:20:40;;;;;;;35.60;18.80;;;1.50;99.90;;;;;;5020832;28;20459;-67
2023/01/24 07:23:19;;;;;;;46.47;20.30;;;1.60;99.90;;;;;;5018550;28;20512;-67
2023/01/24 07:25:46;;;;;;;40.97;19.93;;;1.60;99.90;;;;;;5011315;28;20458;-66
2023/01/24 07:28:15;;;;;;;40.10;19.80;;;1.70;99.90;;;;;;5011351;28;20443;-67
2023/01/24 07:30:42;;;;;;;39.67;18.90;;;1.70;99.90;;;;;;5019157;28;20504;-67
2023/01/24 07:33:08;;;;;;;37.60;19.40;;;1.70;99.90;;;;;;5025291;28;20454;-66
2023/01/24 07:35:35;;;;;;;39.07;18.37;;;1.60;99.90;;;;;;5016792;28;21034;-67
2023/01/24 07:38:02;;;;;;;33.33;18.30;;;1.70;99.90;;;;;;5021047;28;20486;-67
2023/01/24 07:40:28;;;;;;;40.50;19.80;;;1.50;99.90;;;;;;5019234;28;20484;-67
2023/01/24 07:42:55;;;;;;;44.40;19.97;;;1.50;99.90;;;;;;5018337;28;20481;-66
2023/01/24 07:45:23;;;;;;;36.77;17.33;;;1.50;99.90;;;;;;5019944;28;20454;-67
2023/01/24 07:47:49;;;;;;;33.87;17.47;;;1.50;99.90;;;;;;5018551;28;20442;-67
2023/01/24 07:50:16;;;;;;;36.17;17.97;;;1.50;99.90;;;;;;5019659;28;20493;-67
2023/01/24 07:52:43;;;;;;;38.70;18.90;;;1.50;99.90;;;;;;5023411;28;20473;-67
2023/01/24 07:55:10;;;;;;;35.10;16.90;;;1.60;99.90;;;;;;5025535;28;20454;-66
2023/01/24 07:57:37;;;;;;;33.20;17.40;;;1.50;99.90;;;;;;5026536;28;20458;-67
2023/01/24 08:00:04;;;;;;;29.93;15.80;;;1.60;99.90;;;;;;5024868;28;20540;-66
2023/01/24 08:02:32;;;;;;;26.70;15.63;;;1.50;99.90;;;;;;5025097;28;21050;-67
2023/01/24 08:04:58;;;;;;;31.23;15.87;;;1.60;99.90;;;;;;5026431;28;20458;-67
2023/01/24 08:07:25;;;;;;;33.80;17.43;;;1.60;99.90;;;;;;5025638;28;21678;-67
2023/01/24 08:09:52;;;;;;;32.50;15.40;;;1.60;99.90;;;;;;5025893;28;20446;-67
2023/01/24 08:12:18;;;;;;;31.67;15.87;;;1.60;99.90;;;;;;5028899;28;20481;-66
2023/01/24 08:14:45;;;;;;;35.30;18.10;;;1.60;99.90;;;;;;5029018;28;20461;-67
2023/01/24 08:17:12;;;;;;;38.40;18.00;;;1.70;99.90;;;;;;5029440;28;20508;-67
2023/01/24 08:19:40;;;;;;;30.60;17.07;;;1.60;99.90;;;;;;5029411;28;20513;-67
2023/01/24 08:22:07;;;;;;;37.53;17.53;;;1.60;99.90;;;;;;5029376;28;20476;-66
2023/01/24 08:24:34;;;;;;;35.77;17.93;;;1.60;99.90;;;;;;5029372;28;20442;-66
2023/01/24 08:27:02;;;;;;;36.23;18.57;;;1.60;99.90;;;;;;5029040;28;21048;-67
2023/01/24 08:29:29;;;;;;;38.00;17.90;;;1.60;99.90;;;;;;5029508;28;20446;-67
2023/01/24 08:31:56;;;;;;;37.47;18.83;;;1.60;99.90;;;;;;5028331;28;20527;-67
2023/01/24 08:34:22;;;;;;;35.30;17.40;;;1.60;99.90;;;;;;5029191;28;20538;-67
2023/01/24 08:36:50;;;;;;;37.07;17.70;;;1.60;99.90;;;;;;5029172;28;20450;-67
2023/01/24 08:39:17;;;;;;;40.00;18.97;;;1.60;99.90;;;;;;5028638;28;20473;-67
2023/01/24 08:41:45;;;;;;;37.53;17.10;;;1.70;99.90;;;;;;5028897;28;20485;-67
2023/01/24 08:44:12;;;;;;;37.53;19.27;;;1.70;99.90;;;;;;5028104;28;20460;-66
2023/01/24 08:46:38;;;;;;;41.73;20.63;;;1.70;99.90;;;;;;5027746;28;20461;-67
2023/01/24 08:49:05;;;;;;;35.60;19.10;;;1.70;99.90;;;;;;5028845;28;20454;-67
2023/01/24 08:51:32;;;;;;;37.90;19.23;;;1.70;99.90;;;;;;5028359;28;20492;-68
2023/01/24 08:54:00;;;;;;;36.73;17.00;;;1.70;99.90;;;;;;5027922;28;21011;-67
2023/01/24 08:56:27;;;;;;;37.77;17.17;;;1.70;99.90;;;;;;5029264;28;20446;-67
2023/01/24 08:58:54;;;;;;;39.53;17.43;;;1.80;99.90;;;;;;5028752;28;20489;-68
2023/01/24 09:01:21;;;;;;;29.13;15.30;;;1.80;99.90;;;;;;5029250;28;20469;-68
2023/01/24 09:03:48;;;;;;;34.23;17.60;;;1.80;99.90;;;;;;5028522;28;20460;-67
2023/01/24 09:06:15;;;;;;;33.37;16.43;;;1.90;99.90;;;;;;5028841;28;20512;-68
2023/01/24 09:08:41;;;;;;;33.60;15.97;;;1.70;99.90;;;;;;5028966;28;20804;-67
2023/01/24 09:11:10;;;;;;;34.07;16.03;;;1.70;99.90;;;;;;5028276;28;20555;-68
2023/01/24 09:13:36;;;;;;;32.10;16.00;;;1.70;99.90;;;;;;5029515;28;20465;-68
2023/01/24 09:16:03;;;;;;;33.27;17.20;;;1.70;99.90;;;;;;5028074;28;20484;-68
2023/01/24 09:18:30;;;;;;;32.80;15.60;;;1.70;99.90;;;;;;5028401;28;20535;-67
2023/01/24 09:21:00;;;;;;;32.60;16.83;;;1.80;99.90;;;;;;5027694;28;20528;-68
2023/01/24 09:23:27;;;;;;;37.27;14.00;;;1.80;99.90;;;;;;5026873;28;20457;-68
2023/01/24 09:25:54;;;;;;;27.80;14.70;;;1.90;99.90;;;;;;5028313;28;20520;-67
2023/01/24 09:28:22;;;;;;;26.20;14.93;;;1.90;99.90;;;;;;5028503;28;20935;-66
2023/01/24 09:30:49;;;;;;;28.60;15.10;;;1.90;99.90;;;;;;5028295;28;20510;-68
2023/01/24 09:33:17;;;;;;;25.00;13.23;;;1.90;99.90;;;;;;5027321;28;21159;-68
2023/01/24 09:35:52;;;;;;;25.77;15.23;;;2.00;99.90;;;;;;5027060;28;20461;-68
2023/01/24 09:38:19;;;;;;;26.60;13.87;;;1.90;99.90;;;;;;5027505;28;20485;-68
2023/01/24 09:40:52;;;;;;;29.53;14.23;;;2.00;99.90;;;;;;5026961;28;20481;-68
2023/01/24 09:43:41;;;;;;;27.10;14.70;;;1.90;99.90;;;;;;5027500;28;20477;-67
2023/01/24 09:46:17;;;;;;;24.10;13.47;;;2.00;99.90;;;;;;5027696;28;20480;-67
2023/01/24 09:48:45;;;;;;;25.17;13.63;;;2.00;99.90;;;;;;5026967;28;20488;-66
2023/01/24 09:51:16;;;;;;;23.57;13.40;;;2.00;99.90;;;;;;5026980;28;20473;-67
2023/01/24 09:53:46;;;;;;;22.67;13.40;;;2.00;99.90;;;;;;5027383;28;20549;-68
2023/01/24 09:56:26;;;;;;;22.13;13.17;;;2.00;99.90;;;;;;5026633;28;20453;-67
2023/01/24 09:59:09;;;;;;;21.93;12.27;;;2.00;99.90;;;;;;5027991;28;20486;-67
2023/01/24 10:01:38;;;;;;;24.87;13.27;;;2.00;99.90;;;;;;5026510;28;20572;-67
2023/01/24 10:04:05;;;;;;;24.90;13.30;;;2.00;99.90;;;;;;5026815;28;20453;-67
2023/01/24 10:06:33;;;;;;;25.97;13.03;;;2.00;99.90;;;;;;5026376;28;20454;-67
2023/01/24 10:09:12;;;;;;;23.90;12.30;;;2.00;99.90;;;;;;5026457;28;20445;-67
2023/01/24 10:11:50;;;;;;;24.73;12.70;;;2.10;99.90;;;;;;5027460;28;20477;-67
2023/01/24 10:14:34;;;;;;;23.27;11.37;;;2.10;99.90;;;;;;5026885;28;20461;-67
2023/01/24 10:17:19;;;;;;;19.50;11.60;;;2.10;99.90;;;;;;5026455;28;20500;-66
2023/01/24 10:20:01;;;;;;;22.53;12.03;;;2.10;99.90;;;;;;5027275;28;20547;-67
2023/01/24 10:22:46;;;;;;;31.33;13.67;;;2.10;99.90;;;;;;5027439;28;20474;-67
2023/01/24 10:25:18;;;;;;;24.10;13.20;;;2.10;99.90;;;;;;5027069;28;20453;-67
2023/01/24 10:27:48;;;;;;;21.03;12.83;;;2.20;99.90;;;;;;5027174;28;20442;-68
2023/01/24 10:30:20;;;;;;;24.57;12.83;;;2.10;99.90;;;;;;5027073;28;20439;-67
2023/01/24 10:32:51;;;;;;;24.73;12.70;;;2.20;99.90;;;;;;5026614;28;20477;-67
2023/01/24 10:35:23;;;;;;;28.80;13.70;;;2.20;99.90;;;;;;5026802;28;20462;-66
2023/01/24 10:37:55;;;;;;;23.13;12.60;;;2.20;99.90;;;;;;5027189;28;20540;-67
2023/01/24 10:40:25;;;;;;;21.27;13.07;;;2.20;99.90;;;;;;5026479;28;20525;-67
2023/01/24 10:42:51;;;;;;;18.53;11.40;;;2.20;99.90;;;;;;5026380;28;20461;-67
2023/01/24 10:45:36;;;;;;;17.70;11.07;;;2.20;99.90;;;;;;5026622;28;20457;-66
2023/01/24 10:48:10;;;;;;;23.87;11.73;;;2.20;99.90;;;;;;5026991;28;20508;-66
2023/01/24 10:50:42;;;;;;;17.60;10.20;;;2.20;99.90;;;;;;5026371;28;20515;-67
2023/01/24 10:53:22;;;;;;;16.57;10.43;;;2.20;99.90;;;;;;5026204;28;20519;-67
2023/01/24 10:55:49;;;;;;;18.80;10.80;;;2.20;99.90;;;;;;5026678;28;20446;-67
2023/01/24 10:58:24;;;;;;;15.90;9.87;;;2.20;99.90;;;;;;5025651;28;20481;-67
2023/01/24 11:00:58;;;;;;;17.63;10.90;;;2.20;99.90;;;;;;5026757;28;20472;-67
2023/01/24 11:03:27;;;;;;;17.60;10.80;;;2.20;99.90;;;;;;5026478;28;21737;-66
2023/01/24 11:05:55;;;;;;;19.53;11.10;;;2.30;99.90;;;;;;5026114;28;20520;-66
2023/01/24 11:08:23;;;;;;;21.60;10.97;;;2.30;99.90;;;;;;5026692;28;20551;-67
2023/01/24 11:10:53;;;;;;;15.90;10.70;;;2.30;99.90;;;;;;5026860;28;20891;-67
2023/01/24 11:13:27;;;;;;;18.37;11.50;;;2.30;99.90;;;;;;5026804;28;20469;-66
2023/01/24 11:16:02;;;;;;;15.53;10.30;;;2.30;99.90;;;;;;5026635;28;20499;-66
2023/01/24 11:18:29;;;;;;;20.90;12.03;;;2.30;99.90;;;;;;5026466;28;20493;-67
2023/01/24 11:21:12;;;;;;;17.43;9.60;;;2.20;99.90;;;;;;5026509;28;21087;-66
2023/01/24 11:23:39;;;;;;;20.20;10.50;;;2.30;99.90;;;;;;5026579;28;20445;-68
2023/01/24 11:26:21;;;;;;;17.97;10.63;;;2.30;99.90;;;;;;5026250;28;20442;-67
2023/01/24 11:28:57;;;;;;;26.60;11.03;;;2.30;99.90;;;;;;5026906;28;20458;-66
2023/01/24 11:31:33;;;;;;;16.10;10.23;;;2.30;99.90;;;;;;5025994;28;20477;-66
2023/01/24 11:34:15;;;;;;;15.70;9.37;;;2.40;99.90;;;;;;5025871;28;20470;-67
2023/01/24 11:36:54;;;;;;;16.30;10.60;;;2.40;99.90;;;;;;5026901;28;20531;-67
2023/01/24 11:39:31;;;;;;;20.10;10.37;;;2.40;99.90;;;;;;5026268;28;20473;-67
2023/01/24 11:42:05;;;;;;;15.87;9.40;;;2.40;99.90;;;;;;5027094;28;20470;-66
2023/01/24 11:44:56;;;;;;;17.33;10.47;;;2.40;99.90;;;;;;5027319;28;20544;-66
2023/01/24 11:47:29;;;;;;;16.87;8.97;;;2.40;99.90;;;;;;5031029;28;20992;-67
2023/01/24 11:50:16;;;;;;;17.80;10.77;;;2.30;99.90;;;;;;5029882;28;20521;-66
2023/01/24 11:52:53;;;;;;;16.37;9.87;;;2.40;99.90;;;;;;5030884;28;20843;-66
2023/01/24 11:55:33;;;;;;;14.70;8.90;;;2.30;99.90;;;;;;5030591;28;20484;-65
2023/01/24 11:58:18;;;;;;;16.53;10.17;;;2.30;99.90;;;;;;5030196;28;20957;-66
2023/01/24 12:00:54;;;;;;;18.37;9.00;;;2.30;99.90;;;;;;5030477;28;20482;-66
2023/01/24 12:03:48;;;;;;;15.43;8.63;;;2.40;99.90;;;;;;5029392;28;20619;-66
2023/01/24 12:06:29;;;;;;;15.60;9.20;;;2.40;99.90;;;;;;5030032;28;21031;-66
2023/01/24 12:09:15;;;;;;;14.43;9.80;;;2.40;99.90;;;;;;5029682;28;20449;-66
2023/01/24 12:11:48;;;;;;;17.50;10.40;;;2.40;99.90;;;;;;5029936;28;20481;-66
2023/01/24 12:14:39;;;;;;;20.67;9.77;;;2.40;99.90;;;;;;5030233;28;20453;-66
2023/01/24 12:17:13;;;;;;;16.10;9.93;;;2.40;99.90;;;;;;5029981;28;20953;-66
2023/01/24 12:19:51;;;;;;;15.77;10.23;;;2.50;99.90;;;;;;5029798;28;20485;-66
2023/01/24 12:22:20;;;;;;;13.53;8.90;;;2.50;99.90;;;;;;5029735;28;20535;-66
2023/01/24 12:24:54;;;;;;;15.40;9.90;;;2.50;99.90;;;;;;5029736;28;20453;-66
2023/01/24 12:27:25;;;;;;;16.23;9.47;;;2.70;99.90;;;;;;5029859;28;20468;-66
2023/01/24 12:29:58;;;;;;;16.80;10.80;;;2.50;99.90;;;;;;5029842;28;20524;-66
2023/01/24 12:32:29;;;;;;;14.30;9.70;;;2.60;99.90;;;;;;5030118;28;20473;-66
2023/01/24 12:35:05;;;;;;;21.33;11.43;;;2.50;99.90;;;;;;5029045;28;20948;-66
2023/01/24 12:37:38;;;;;;;25.77;13.00;;;2.50;99.90;;;;;;5030285;28;20522;-66
2023/01/24 12:40:16;;;;;;;14.97;9.47;;;2.50;99.90;;;;;;5029396;28;20571;-66
2023/01/24 12:42:53;;;;;;;20.17;11.30;;;2.40;99.90;;;;;;5029893;28;21023;-66
2023/01/24 12:45:23;;;;;;;18.50;10.40;;;2.40;99.90;;;;;;5029571;28;20441;-66
2023/01/24 12:47:55;;;;;;;23.83;11.30;;;2.40;99.90;;;;;;5029344;28;20540;-66
2023/01/24 12:50:31;;;;;;;15.97;9.87;;;2.40;99.90;;;;;;5029905;28;20509;-66
2023/01/24 12:53:06;;;;;;;18.43;9.87;;;2.30;99.90;;;;;;5029658;28;20453;-65
2023/01/24 12:55:38;;;;;;;18.20;10.87;;;2.30;99.90;;;;;;5028947;28;20539;-68
2023/01/24 12:58:11;;;;;;;18.47;10.93;;;2.30;99.90;;;;;;5029018;28;20515;-66
2023/01/24 13:00:55;;;;;;;14.97;10.13;;;2.30;99.90;;;;;;5028923;28;20493;-66
2023/01/24 13:03:35;;;;;;;19.60;10.10;;;2.30;99.90;;;;;;5029280;28;20901;-66
2023/01/24 13:06:12;;;;;;;21.30;13.00;;;2.30;99.90;;;;;;5029199;28;20458;-66
2023/01/24 13:08:51;;;;;;;23.47;12.60;;;2.40;99.90;;;;;;5029121;28;20454;-66
2023/01/24 13:11:21;;;;;;;16.67;10.40;;;2.30;99.90;;;;;;5029158;28;20466;-66
2023/01/24 13:13:58;;;;;;;17.03;10.73;;;2.40;99.90;;;;;;5029262;28;20500;-66
2023/01/24 13:17:04;;;;;;;20.57;11.27;;;2.30;99.90;;;;;;5029215;28;20864;-67
2023/01/24 13:19:44;;;;;;;21.83;11.10;;;2.30;99.90;;;;;;5028965;28;20519;-66
2023/01/24 13:22:31;;;;;;;20.57;11.07;;;2.30;99.90;;;;;;5028650;28;20481;-66
2023/01/24 13:25:06;;;;;;;23.60;11.80;;;2.30;99.90;;;;;;5029179;28;21261;-66
2023/01/24 13:27:41;;;;;;;20.77;10.60;;;2.30;99.90;;;;;;5029234;28;20445;-66